createdAt,value
2022-09-03T00:01:09.383Z,1.75
2022-09-03T00:11:19.198Z,1.40
2022-09-03T00:21:34.460Z,0.82
2022-09-03T00:31:43.153Z,1.20
2022-09-03T00:42:06.962Z,0.73
2022-09-03T00:52:23.397Z,1.55
2022-09-03T01:02:37.524Z,0.40
2022-09-03T01:12:56.061Z,0.77
2022-09-03T01:23:31.008Z,2.58
2022-09-03T01:33:40.597Z,1.08
2022-09-03T01:43:51.989Z,1.38
2022-09-03T01:54:31.415Z,1.45
2022-09-03T02:04:34.481Z,0.95
2022-09-03T02:14:39.105Z,1.23
2022-09-03T02:24:42.101Z,1.75
2022-09-03T02:34:47.440Z,0.98
2022-09-03T02:44:55.820Z,0.73
2022-09-03T02:55:01.017Z,0.43
2022-09-03T03:05:05.002Z,1.00
2022-09-03T03:15:10.421Z,2.60
2022-09-03T03:25:13.483Z,3.55
2022-09-03T03:35:18.061Z,15.40
2022-09-03T03:45:21.055Z,3.42
2022-09-03T03:55:27.100Z,5.35
2022-09-03T04:05:33.650Z,5.68
2022-09-03T04:15:39.030Z,5.88
2022-09-03T04:25:42.567Z,6.85
2022-09-03T04:35:47.122Z,4.55
2022-09-03T04:45:50.685Z,5.30
2022-09-03T04:55:55.372Z,7.40
2022-09-03T05:05:58.506Z,4.90
2022-09-03T05:16:04.710Z,2.25
2022-09-03T05:26:10.817Z,1.70
2022-09-03T05:36:17.660Z,1.10
2022-09-03T05:46:21.210Z,1.08
2022-09-03T05:56:27.126Z,3.17
2022-09-03T06:06:32.225Z,2.10
2022-09-03T06:16:40.380Z,2.95
2022-09-03T06:26:43.844Z,1.75
2022-09-03T06:36:49.132Z,1.83
2022-09-03T06:46:54.946Z,1.00
2022-09-03T06:57:00.914Z,1.65
2022-09-03T07:07:04.787Z,3.30
2022-09-03T07:17:10.999Z,5.85
2022-09-03T07:27:15.179Z,1.83
2022-09-03T07:37:19.851Z,1.52
2022-09-03T07:47:26.921Z,0.70
2022-09-03T07:57:31.874Z,1.65
2022-09-03T08:07:35.712Z,2.00
2022-09-03T08:17:44.547Z,0.55
2022-09-03T08:27:47.784Z,1.08
2022-09-03T08:37:56.771Z,2.53
2022-09-03T08:48:05.904Z,0.40
2022-09-03T08:58:14.535Z,2.88
2022-09-03T09:08:24.338Z,0.52
2022-09-03T09:18:41.270Z,0.67
2022-09-03T09:28:47.956Z,1.25
2022-09-03T09:38:57.286Z,2.60
2022-09-03T09:49:00.765Z,1.55
2022-09-03T09:59:07.691Z,1.48
2022-09-03T10:09:13.018Z,0.85
2022-09-03T10:19:25.119Z,1.52
2022-09-03T10:29:30.399Z,2.30
2022-09-03T10:39:50.168Z,1.10
2022-09-03T10:50:04.985Z,1.20
2022-09-03T11:00:15.571Z,0.82
2022-09-03T11:10:30.688Z,1.00
2022-09-03T11:20:36.512Z,0.65
2022-09-03T11:30:55.234Z,0.50
2022-09-03T11:41:04.090Z,3.80
2022-09-03T11:51:20.642Z,0.73
2022-09-03T12:01:28.610Z,2.20
2022-09-03T12:11:47.245Z,1.90
2022-09-03T12:21:53.007Z,0.70
2022-09-03T12:31:57.121Z,0.70
2022-09-03T12:42:04.889Z,0.63
2022-09-03T12:52:18.531Z,0.65
2022-09-03T13:02:27.772Z,2.58
2022-09-03T13:12:35.105Z,9.25
2022-09-03T13:22:54.596Z,5.90
2022-09-03T13:33:03.791Z,5.78
2022-09-03T13:43:21.046Z,7.00
2022-09-03T13:53:37.175Z,7.75
2022-09-03T14:03:49.208Z,4.10
2022-09-03T14:14:12.805Z,3.15
2022-09-03T14:24:22.637Z,3.35
2022-09-03T14:34:38.851Z,2.90
2022-09-03T14:45:23.657Z,1.88
2022-09-03T14:55:44.678Z,3.03
2022-09-03T15:06:04.037Z,3.47
2022-09-03T15:16:27.371Z,3.80
2022-09-03T15:26:51.626Z,2.67
2022-09-03T15:37:01.781Z,1.40
2022-09-03T15:47:14.485Z,1.83
2022-09-03T15:57:26.475Z,1.10
2022-09-03T16:07:49.162Z,3.38
2022-09-03T16:18:02.100Z,6.75
2022-09-03T16:28:15.155Z,6.20
2022-09-03T16:38:31.746Z,7.38
2022-09-03T16:48:47.269Z,5.70
2022-09-03T16:59:02.256Z,12.18
2022-09-03T17:09:19.241Z,9.25
2022-09-03T17:19:33.359Z,10.88
2022-09-03T17:29:52.288Z,17.48
2022-09-03T17:40:11.786Z,16.55
2022-09-03T17:50:19.164Z,17.65
2022-09-03T18:00:38.431Z,23.75
2022-09-03T18:10:50.491Z,21.77
2022-09-03T18:21:27.776Z,18.83
2022-09-03T18:31:53.266Z,20.75
2022-09-03T18:42:24.669Z,17.73
2022-09-03T18:52:53.897Z,16.10
2022-09-03T19:03:32.117Z,13.27
2022-09-03T19:13:55.983Z,8.48
2022-09-03T19:24:21.085Z,10.77
2022-09-03T19:35:03.525Z,10.73
2022-09-03T19:45:36.258Z,13.00
2022-09-03T19:56:07.140Z,7.57
2022-09-03T20:06:33.126Z,6.80
2022-09-03T20:16:42.386Z,6.63
2022-09-03T20:26:55.373Z,9.30
2022-09-03T20:37:15.927Z,13.68
2022-09-03T20:48:00.624Z,11.80
2022-09-03T20:58:14.764Z,15.02
2022-09-03T21:08:34.982Z,10.25
2022-09-03T21:18:47.208Z,10.00
2022-09-03T21:28:58.865Z,11.65
2022-09-03T21:49:12.549Z,12.82
2022-09-03T21:59:35.219Z,8.93
2022-09-03T22:09:46.686Z,10.77
2022-09-03T22:19:51.858Z,9.90
2022-09-03T22:30:03.930Z,10.63
2022-09-03T22:40:19.512Z,13.65
2022-09-03T22:50:30.802Z,10.90
2022-09-03T23:00:42.619Z,9.57
2022-09-03T23:21:04.262Z,8.23
2022-09-03T23:31:18.580Z,7.03
2022-09-03T23:41:34.146Z,6.05
2022-09-03T23:51:51.172Z,7.05
